Time;durP1;ratioP1;P1;durP2;ratioP2;P2;SDS_P1;SDS_P2;PMS_P1;PMS_P2;Temp;Humidity;BMP_temperature;BMP_pressure;BME280_temperature;BME280_humidity;BME280_pressure;Samples;Min_cycle;Max_cycle;Signal;HPM_P1;HPM_P2
2022/03/17 05:30:37;;;;;;;;;6.50;3.75;;;;;11.56;59.93;102313.50;5050332;27;46577;-75
2022/03/17 05:33:03;;;;;;;;;8.00;8.00;;;;;11.55;59.47;102318.91;5034294;28;45507;-75
2022/03/17 05:35:28;;;;;;;;;5.00;4.00;;;;;11.55;59.72;102333.22;5033631;28;45747;-75
2022/03/17 05:37:54;;;;;;;;;8.50;6.75;;;;;11.54;59.93;102330.56;5034055;28;45488;-74
2022/03/17 05:40:21;;;;;;;;;8.00;8.00;;;;;11.56;60.07;102331.44;5032990;28;45529;-75
2022/03/17 05:42:49;;;;;;;;;7.25;7.00;;;;;11.57;59.88;102338.56;5015794;28;48014;-75
2022/03/17 05:45:16;;;;;;;;;9.00;6.50;;;;;11.60;60.10;102341.16;5033489;28;45240;-76
2022/03/17 05:47:46;;;;;;;;;8.25;8.25;;;;;11.56;59.37;102364.53;5033001;28;45424;-75
2022/03/17 05:50:14;;;;;;;;;7.25;7.25;;;;;11.52;60.00;102354.78;5033540;28;45497;-75
2022/03/17 05:52:42;;;;;;;;;6.50;6.25;;;;;11.44;60.21;102358.56;5033785;28;45341;-74
2022/03/17 05:55:12;;;;;;;;;8.25;6.25;;;;;11.46;60.13;102359.41;5037043;28;45530;-74
2022/03/17 05:57:42;;;;;;;;;9.50;8.00;;;;;11.46;60.12;102362.09;5037051;28;45347;-74
2022/03/17 06:00:11;;;;;;;;;9.75;9.00;;;;;11.47;59.78;102361.19;5036490;28;45584;-75
2022/03/17 06:02:37;;;;;;;;;8.75;5.00;;;;;11.42;59.89;102363.09;5037038;28;45418;-75
2022/03/17 06:05:04;;;;;;;;;3.75;3.25;;;;;11.46;59.96;102372.84;5036390;28;45343;-75
2022/03/17 06:08:00;;;;;;;;;5.50;5.00;;;;;11.48;59.70;102382.66;5039677;28;45313;-76
2022/03/17 06:10:27;;;;;;;;;8.75;5.00;;;;;11.41;59.76;102375.63;5037225;28;45558;-75
2022/03/17 06:12:53;;;;;;;;;7.25;7.25;;;;;11.46;59.77;102386.28;5037208;28;46096;-72
2022/03/17 06:15:20;;;;;;;;;7.50;7.50;;;;;11.49;60.09;102397.81;5037333;28;45311;-73
2022/03/17 06:17:50;;;;;;;;;8.00;6.25;;;;;11.46;59.65;102405.97;5036680;28;45483;-75
2022/03/17 06:20:20;;;;;;;;;11.00;8.00;;;;;11.36;59.55;102399.03;5036270;28;45380;-78
2022/03/17 06:22:49;;;;;;;;;7.00;5.50;;;;;11.33;59.94;102407.13;5036576;28;46209;-82
2022/03/17 06:25:21;;;;;;;;;10.25;8.25;;;;;11.22;59.42;102390.41;5037963;28;45355;-79
2022/03/17 06:27:48;;;;;;;;;6.00;6.00;;;;;11.36;58.50;102423.19;5019500;28;45398;-70
2022/03/17 06:30:22;;;;;;;;;9.00;4.75;;;;;11.28;58.78;102427.84;5036557;28;45611;-78
2022/03/17 06:32:49;;;;;;;;;9.25;6.50;;;;;11.29;58.85;102443.94;5027003;28;45454;-78
2022/03/17 06:35:18;;;;;;;;;7.25;5.00;;;;;11.18;58.25;102435.22;5037443;28;45363;-76
2022/03/17 06:37:46;;;;;;;;;4.00;4.00;;;;;11.24;58.73;102452.97;5057106;28;45453;-75
2022/03/17 06:40:12;;;;;;;;;5.00;4.00;;;;;11.20;58.75;102449.50;5056636;28;45492;-74
2022/03/17 06:42:38;;;;;;;;;5.50;4.00;;;;;11.24;58.70;102452.97;5037889;28;46684;-76
2022/03/17 06:45:04;;;;;;;;;4.00;4.00;;;;;11.30;58.10;102461.81;5056458;28;45381;-80
2022/03/17 06:47:29;;;;;;;;;4.25;4.25;;;;;11.30;57.83;102460.94;5035224;28;45371;-74
2022/03/17 06:49:55;;;;;;;;;3.75;3.75;;;;;11.37;57.41;102484.03;5051856;28;45391;-74
2022/03/17 06:52:20;;;;;;;;;4.00;3.00;;;;;11.36;57.33;102490.31;5056334;28;45204;-76
2022/03/17 06:54:46;;;;;;;;;8.00;2.75;;;;;11.26;57.12;102462.78;5056254;28;45484;-74
2022/03/17 06:57:19;;;;;;;;;6.50;6.25;;;;;11.38;56.94;102488.50;5057017;28;45256;-77
2022/03/17 06:59:45;;;;;;;;;4.50;4.00;;;;;11.33;55.93;102488.59;5056350;28;45447;-74
2022/03/17 07:02:11;;;;;;;;;3.75;2.75;;;;;11.32;56.51;102491.28;5056080;28;45573;-74
2022/03/17 07:04:36;;;;;;;;;5.25;4.50;;;;;11.28;56.90;102487.81;5055996;28;45315;-75
2022/03/17 07:07:01;;;;;;;;;3.75;3.75;;;;;11.32;56.77;102510.09;5056388;28;45444;-73
2022/03/17 07:09:27;;;;;;;;;5.00;5.00;;;;;11.26;56.17;102497.69;5033085;28;45394;-75
2022/03/17 07:11:52;;;;;;;;;4.50;4.50;;;;;11.31;56.33;102521.78;5031512;28;47213;-78
2022/03/17 07:14:18;;;;;;;;;5.25;3.00;;;;;11.28;56.16;102516.47;5050803;28;45793;-78
2022/03/17 07:16:43;;;;;;;;;5.00;3.75;;;;;11.27;55.89;102523.63;5055988;28;45343;-78
2022/03/17 07:19:09;;;;;;;;;5.00;5.00;;;;;11.32;56.41;102531.56;5054791;28;45418;-79
2022/03/17 07:21:35;;;;;;;;;5.50;5.50;;;;;11.22;55.83;102512.09;5058867;28;45342;-78
2022/03/17 07:24:00;;;;;;;;;4.50;4.50;;;;;11.16;55.98;102512.22;5055794;28;45416;-77
2022/03/17 07:26:27;;;;;;;;;7.00;5.00;;;;;11.31;56.08;102537.88;5055333;28;45449;-77
2022/03/17 07:28:54;;;;;;;;;4.50;4.50;;;;;11.31;56.11;102543.25;5055387;28;45453;-78
2022/03/17 07:31:20;;;;;;;;;9.00;4.00;;;;;11.31;55.69;102541.41;5054976;28;45498;-78
2022/03/17 07:33:45;;;;;;;;;9.75;6.00;;;;;11.32;56.57;102558.41;5055486;28;45488;-78
2022/03/17 07:36:11;;;;;;;;;6.25;6.00;;;;;11.06;55.95;102510.63;5055870;28;45536;-81
2022/03/17 07:38:36;;;;;;;;;5.25;5.25;;;;;11.33;56.20;102553.03;5035581;28;45851;-78
2022/03/17 07:41:03;;;;;;;;;9.50;8.00;;;;;11.37;55.87;102556.53;5054582;28;46430;-78
2022/03/17 07:43:28;;;;;;;;;8.75;6.00;;;;;11.41;55.48;102571.66;5037265;28;46060;-77
2022/03/17 07:45:53;;;;;;;;;10.00;7.00;;;;;11.37;55.88;102561.91;5054966;28;45525;-77
2022/03/17 07:48:20;;;;;;;;;5.00;5.00;;;;;11.33;55.32;102549.44;5054522;28;45412;-78
2022/03/17 07:50:45;;;;;;;;;7.25;7.25;;;;;11.42;55.85;102562.69;5054783;28;45438;-77
2022/03/17 07:53:10;;;;;;;;;9.00;9.00;;;;;11.38;55.73;102564.56;5053587;28;45536;-78
2022/03/17 07:55:37;;;;;;;;;8.75;6.50;;;;;11.38;55.57;102577.13;5054986;28;45304;-77
2022/03/17 07:58:04;;;;;;;;;8.00;6.00;;;;;11.38;55.93;102579.81;5056359;28;45476;-78
2022/03/17 08:00:30;;;;;;;;;6.75;6.75;;;;;11.39;55.96;102589.63;5054577;28;46717;-79
2022/03/17 08:02:55;;;;;;;;;11.00;8.25;;;;;11.32;56.03;102571.84;5054112;28;45370;-78
2022/03/17 08:05:21;;;;;;;;;5.00;5.00;;;;;11.42;56.15;102592.25;5054932;28;45599;-78
2022/03/17 08:07:46;;;;;;;;;9.50;8.75;;;;;11.28;56.43;102567.47;5037474;28;46085;-78
2022/03/17 08:10:13;;;;;;;;;7.50;6.00;;;;;11.45;55.79;102591.31;5054438;28;45322;-79
2022/03/17 08:12:39;;;;;;;;;5.50;5.50;;;;;11.39;55.56;102570.84;5054905;28;45322;-79
2022/03/17 08:15:07;;;;;;;;;10.25;5.50;;;;;11.44;56.23;102584.16;5055648;28;45389;-82
2022/03/17 08:17:34;;;;;;;;;7.00;5.00;;;;;11.53;56.08;102600.97;5054604;28;45350;-81
2022/03/17 08:19:59;;;;;;;;;7.25;7.25;;;;;11.64;55.42;102614.19;5054986;28;45655;-82
2022/03/17 08:22:25;;;;;;;;;10.25;7.25;;;;;11.67;55.86;102622.16;5059075;28;45675;-81
2022/03/17 08:24:51;;;;;;;;;5.00;5.00;;;;;11.58;55.97;102599.06;5057565;28;45548;-83
2022/03/17 08:27:16;;;;;;;;;7.25;6.25;;;;;11.60;55.11;102609.78;5059496;28;45271;-80
2022/03/17 08:29:42;;;;;;;;;5.00;3.50;;;;;11.55;55.30;102598.25;5035976;28;48377;-80
2022/03/17 08:32:09;;;;;;;;;8.25;6.00;;;;;11.73;55.00;102636.38;5036772;28;45423;-82
2022/03/17 08:34:35;;;;;;;;;5.75;5.75;;;;;11.69;55.67;102626.59;5055711;28;45374;-81
2022/03/17 08:37:00;;;;;;;;;8.75;8.75;;;;;11.57;54.73;102602.66;5054482;28;45421;-82
2022/03/17 08:39:26;;;;;;;;;9.50;6.00;;;;;11.77;54.62;102645.28;5055027;28;45583;-82
2022/03/17 08:41:53;;;;;;;;;7.50;7.50;;;;;11.58;54.15;102611.59;5037379;28;45358;-83
2022/03/17 08:44:19;;;;;;;;;5.75;5.75;;;;;11.72;54.16;102631.94;5056069;28;45552;-83
2022/03/17 08:49:28;;;;;;;;;7.00;5.00;;;;;11.66;53.07;102639.19;5054456;28;45834;-81
2022/03/17 08:51:56;;;;;;;;;5.00;5.00;;;;;11.63;53.15;102650.91;5032809;28;45332;-80
2022/03/17 08:54:27;;;;;;;;;4.25;4.25;;;;;11.74;53.06;102666.81;5047158;28;45366;-79
2022/03/17 08:57:01;;;;;;;;;6.25;6.25;;;;;11.72;53.36;102674.03;5035890;28;47371;-80
2022/03/17 08:59:30;;;;;;;;;6.75;5.50;;;;;11.83;53.02;102684.56;5036458;28;47426;-80
2022/03/17 09:02:03;;;;;;;;;10.25;6.25;;;;;11.92;52.43;102696.03;5032923;28;45383;-82
2022/03/17 09:04:29;;;;;;;;;6.00;4.00;;;;;11.77;52.72;102663.22;5035656;28;45385;-81
2022/03/17 09:06:59;;;;;;;;;9.00;6.25;;;;;11.91;52.75;102690.72;5054163;28;45683;-81
2022/03/17 09:09:34;;;;;;;;;12.50;8.50;;;;;12.05;52.52;102710.13;5053964;28;45488;-80
2022/03/17 09:12:00;;;;;;;;;8.50;6.25;;;;;12.06;52.04;102712.78;5054891;28;45566;-81
2022/03/17 09:14:26;;;;;;;;;8.50;6.25;;;;;11.74;52.16;102645.31;5037249;28;45264;-81
2022/03/17 09:16:52;;;;;;;;;10.00;6.00;;;;;12.15;52.61;102709.00;5033907;28;46911;-79
2022/03/17 09:19:21;;;;;;;;;2.75;2.75;;;;;11.83;52.05;102644.25;5052778;28;46402;-81
2022/03/17 09:21:46;;;;;;;;;10.00;8.50;;;;;12.06;51.77;102685.00;5054139;28;45322;-83
2022/03/17 09:24:12;;;;;;;;;5.75;5.75;;;;;12.23;51.82;102723.19;5054713;28;45472;-81
2022/03/17 09:26:38;;;;;;;;;8.75;5.00;;;;;12.18;52.08;102697.28;5053734;28;45350;-80
2022/03/17 09:29:04;;;;;;;;;10.75;8.25;;;;;12.28;51.58;102715.00;5038456;28;46740;-82
2022/03/17 09:31:29;;;;;;;;;8.50;7.25;;;;;12.09;51.54;102679.53;5038269;28;45521;-81
2022/03/17 09:33:55;;;;;;;;;9.00;7.75;;;;;12.21;51.67;102708.00;5057473;28;45497;-76
2022/03/17 09:36:21;;;;;;;;;6.00;6.00;;;;;12.20;51.39;102707.09;5056288;28;45419;-79
2022/03/17 09:39:39;;;;;;;;;6.25;5.00;;;;;12.33;51.66;102731.94;5057182;28;45505;-77
2022/03/17 09:41:33;;;;;;;;;8.75;6.00;;;;;12.23;51.75;102722.28;5056029;28;45497;-79
2022/03/17 09:43:59;;;;;;;;;7.25;6.00;;;;;12.36;51.80;102745.31;5056345;28;45394;-77
2022/03/17 09:46:28;;;;;;;;;7.25;6.75;;;;;12.34;51.54;102747.13;5047272;28;46321;-78
2022/03/17 09:48:55;;;;;;;;;8.25;8.25;;;;;12.35;51.92;102748.91;5055791;28;45460;-80
2022/03/17 09:51:23;;;;;;;;;6.50;6.50;;;;;12.36;52.04;102743.50;5038121;28;46012;-78
2022/03/17 09:53:53;;;;;;;;;6.75;6.75;;;;;12.37;51.97;102739.91;5044258;28;45364;-78
2022/03/17 09:56:25;;;;;;;;;11.00;7.00;;;;;12.40;52.13;102750.59;5056151;28;45528;-80
2022/03/17 09:58:51;;;;;;;;;10.25;7.00;;;;;12.42;51.68;102759.50;5056503;28;45260;-79
2022/03/17 10:01:19;;;;;;;;;12.50;10.50;;;;;12.44;51.64;102763.06;5056335;28;45502;-79
2022/03/17 10:03:45;;;;;;;;;11.50;9.50;;;;;12.35;51.63;102741.72;5057030;28;45378;-79
2022/03/17 10:06:11;;;;;;;;;13.00;7.25;;;;;12.28;51.76;102728.44;5055697;28;45362;-80
2022/03/17 10:08:38;;;;;;;;;9.50;7.75;;;;;12.43;51.24;102771.16;5056256;28;45954;-79
2022/03/17 10:11:04;;;;;;;;;6.00;5.25;;;;;12.40;51.34;102756.00;5055965;28;45346;-79
2022/03/17 10:13:30;;;;;;;;;7.25;7.25;;;;;12.41;51.23;102759.56;5056242;28;45379;-78
2022/03/17 10:16:11;;;;;;;;;7.75;7.75;;;;;12.25;51.56;102742.84;5055630;28;45553;-79
2022/03/17 10:18:37;;;;;;;;;9.75;8.25;;;;;12.43;52.00;102777.41;5055339;28;45481;-78
2022/03/17 10:21:11;;;;;;;;;15.00;11.50;;;;;12.43;51.66;102780.09;5058798;28;45504;-80
2022/03/17 10:24:07;;;;;;;;;13.75;10.50;;;;;12.42;51.25;102772.06;5055766;28;45428;-81
2022/03/17 10:26:37;;;;;;;;;11.00;10.75;;;;;12.43;51.72;102779.22;5054067;28;45561;-79
2022/03/17 10:29:09;;;;;;;;;6.25;6.25;;;;;12.43;51.25;102779.22;5055234;28;46255;-79
2022/03/17 10:31:59;;;;;;;;;9.50;9.50;;;;;12.44;51.78;102792.66;5055687;28;45458;-80
2022/03/17 10:34:28;;;;;;;;;7.25;4.50;;;;;12.37;51.82;102776.66;5042846;28;45523;-78
2022/03/17 10:37:07;;;;;;;;;11.00;11.00;;;;;12.47;51.53;102786.31;5055076;28;45561;-79
2022/03/17 10:39:44;;;;;;;;;13.75;10.75;;;;;12.27;51.08;102762.53;5054771;28;45488;-77
2022/03/17 10:42:24;;;;;;;;;13.00;11.00;;;;;12.47;50.92;102802.47;5054824;28;45591;-79
2022/03/17 10:44:52;;;;;;;;;11.50;8.50;;;;;12.48;51.63;102801.56;5055464;28;45361;-79
2022/03/17 10:47:43;;;;;;;;;14.75;11.75;;;;;12.51;51.06;102802.34;5055714;28;45383;-79
2022/03/17 10:50:20;;;;;;;;;12.75;10.75;;;;;12.49;51.59;102798.84;5052708;28;46004;-78
2022/03/17 10:52:50;;;;;;;;;13.75;12.00;;;;;12.50;51.37;102807.78;5055495;28;45452;-78
2022/03/17 10:55:19;;;;;;;;;10.50;10.50;;;;;12.36;50.81;102789.22;5055180;28;45401;-78
2022/03/17 10:57:45;;;;;;;;;10.50;8.50;;;;;12.51;51.18;102810.44;5055525;28;45264;-81
2022/03/17 11:00:25;;;;;;;;;12.00;11.75;;;;;12.40;50.63;102806.22;5054805;28;45573;-80
2022/03/17 11:02:59;;;;;;;;;11.25;10.00;;;;;12.38;51.47;102805.34;5055080;28;45482;-80
2022/03/17 11:05:27;;;;;;;;;13.00;11.50;;;;;12.50;51.19;102818.56;5055881;28;45350;-79
2022/03/17 11:07:54;;;;;;;;;16.50;11.00;;;;;12.49;50.89;102830.22;5054848;28;45555;-77
2022/03/17 11:10:24;;;;;;;;;9.25;7.25;;;;;12.52;51.25;102824.75;5057683;28;46013;-85
2022/03/17 11:12:50;;;;;;;;;13.25;10.00;;;;;12.50;50.83;102819.41;5059116;28;45387;-78
2022/03/17 11:15:26;;;;;;;;;7.25;7.25;;;;;12.52;50.77;102824.75;5061855;28;45387;-78
2022/03/17 11:17:52;;;;;;;;;13.50;12.75;;;;;12.34;51.12;102798.25;5069387;28;45393;-81
2022/03/17 11:20:23;;;;;;;;;15.50;10.25;;;;;12.43;51.00;102804.31;5076875;28;45241;-77
2022/03/17 11:23:05;;;;;;;;;12.00;12.00;;;;;12.62;50.81;102826.34;5072213;28;45476;-78
2022/03/17 11:25:34;;;;;;;;;11.00;10.00;;;;;12.61;50.50;102819.19;5068067;28;45453;-79
2022/03/17 11:28:03;;;;;;;;;11.50;8.25;;;;;12.66;50.32;102819.13;5038349;28;45407;-77
2022/03/17 11:30:42;;;;;;;;;11.75;10.25;;;;;12.70;49.87;102824.38;5057681;28;46191;-78
2022/03/17 11:33:33;;;;;;;;;12.25;8.50;;;;;12.66;50.31;102819.13;5038569;28;45365;-76
2022/03/17 11:36:09;;;;;;;;;8.75;8.00;;;;;12.62;49.56;102823.66;5033126;28;45358;-77
2022/03/17 11:41:27;;;;;;;;;9.50;9.50;;;;;12.66;49.47;102836.16;5053961;28;45706;-79
2022/03/17 11:43:52;;;;;;;;;12.50;11.00;;;;;12.72;49.78;102848.56;5054339;28;45415;-78
2022/03/17 11:46:23;;;;;;;;;10.50;7.50;;;;;12.69;49.25;102854.91;5055450;28;45483;-78
2022/03/17 11:48:52;;;;;;;;;12.50;8.50;;;;;12.68;49.48;102846.84;5053919;28;46223;-78
2022/03/17 11:51:18;;;;;;;;;7.00;4.00;;;;;12.75;49.15;102848.53;5052619;28;45860;-76
2022/03/17 11:54:03;;;;;;;;;9.00;9.00;;;;;12.76;49.75;102861.91;5036245;28;45414;-76
2022/03/17 11:56:31;;;;;;;;;8.25;6.75;;;;;12.79;48.87;102848.41;5055195;28;45545;-78
2022/03/17 11:58:57;;;;;;;;;9.75;7.75;;;;;12.78;49.51;102854.72;5036010;28;46954;-78
2022/03/17 12:01:27;;;;;;;;;9.25;9.00;;;;;12.71;49.02;102838.72;5053692;28;46583;-82
2022/03/17 12:03:57;;;;;;;;;12.00;10.00;;;;;12.81;49.25;102862.72;5054034;28;45552;-76
2022/03/17 12:06:34;;;;;;;;;10.00;7.00;;;;;12.85;49.10;102864.41;5033181;28;45453;-77
2022/03/17 12:09:09;;;;;;;;;11.50;10.00;;;;;12.86;48.80;102866.19;5036848;28;47483;-79
2022/03/17 12:11:42;;;;;;;;;13.50;11.75;;;;;12.84;48.98;102854.56;5054267;28;45519;-76
2022/03/17 12:16:52;;;;;;;;;12.25;10.50;;;;;12.95;49.07;102857.03;5056613;28;45572;-84
2022/03/17 12:19:30;;;;;;;;;10.50;10.50;;;;;12.97;48.54;102851.63;5054417;28;45553;-83
2022/03/17 12:21:58;;;;;;;;;11.75;11.75;;;;;13.00;48.76;102857.84;5053186;28;46563;-83
2022/03/17 12:24:48;;;;;;;;;12.00;11.00;;;;;13.01;48.21;102856.91;5053760;28;45390;-82
2022/03/17 12:27:30;;;;;;;;;13.75;10.75;;;;;12.96;48.03;102850.72;5054177;28;45534;-80
2022/03/17 12:30:03;;;;;;;;;12.25;12.25;;;;;13.00;48.15;102852.44;5053966;28;45545;-79
2022/03/17 12:32:32;;;;;;;;;17.50;11.50;;;;;12.99;48.18;102853.38;5031358;28;47525;-80
2022/03/17 12:34:59;;;;;;;;;11.25;10.75;;;;;12.84;49.07;102824.09;5027812;28;45404;-80
2022/03/17 12:37:30;;;;;;;;;14.25;12.75;;;;;13.10;48.48;102861.22;5035634;28;45399;-83
2022/03/17 12:39:58;;;;;;;;;12.75;11.75;;;;;13.13;48.86;102870.13;5053674;28;45572;-83
2022/03/17 12:42:32;;;;;;;;;11.00;11.00;;;;;13.17;48.84;102860.19;5053664;28;45430;-82
2022/03/17 12:45:02;;;;;;;;;11.25;11.25;;;;;13.08;48.24;102849.56;5054095;28;45432;-83
2022/03/17 12:47:30;;;;;;;;;13.00;12.00;;;;;13.11;47.90;102853.06;5053856;28;45295;-81
2022/03/17 12:49:57;;;;;;;;;18.00;13.00;;;;;13.18;48.74;102854.72;5053512;28;45569;-83
2022/03/17 12:52:25;;;;;;;;;13.75;11.50;;;;;13.06;48.45;102843.34;5053086;28;46273;-79
2022/03/17 12:54:54;;;;;;;;;14.50;10.75;;;;;13.04;48.79;102824.50;5053868;28;45497;-85
2022/03/17 12:57:22;;;;;;;;;13.25;13.25;;;;;13.03;47.20;102805.69;5055268;28;45459;-81
2022/03/17 12:59:47;;;;;;;;;13.25;11.00;;;;;13.18;47.89;102838.56;5055901;28;45522;-82
2022/03/17 13:02:18;;;;;;;;;11.00;9.75;;;;;12.95;47.88;102799.59;5055812;28;45473;-83
2022/03/17 13:04:45;;;;;;;;;15.50;12.00;;;;;13.08;47.81;102820.84;5036641;28;46259;-84
2022/03/17 13:07:14;;;;;;;;;16.00;12.25;;;;;13.17;47.52;102846.72;5045547;28;45438;-82
2022/03/17 13:09:40;;;;;;;;;18.25;14.00;;;;;13.21;47.64;102868.13;5055019;28;45589;-83
2022/03/17 13:15:14;;;;;;;;;7.75;7.75;;;;;13.22;47.64;102860.94;5043452;28;45457;-80
2022/03/17 13:17:49;;;;;;;;;13.75;12.00;;;;;13.16;47.86;102850.31;5054195;28;45327;-81
2022/03/17 13:20:15;;;;;;;;;15.75;14.50;;;;;13.28;47.50;102871.56;5034198;28;46135;-83
2022/03/17 13:22:41;;;;;;;;;12.75;11.75;;;;;13.24;47.47;102864.50;5056498;28;45437;-83
2022/03/17 13:25:13;;;;;;;;;13.50;11.00;;;;;13.27;47.60;102855.47;5055811;28;45340;-82
2022/03/17 13:27:44;;;;;;;;;11.00;7.25;;;;;13.37;47.41;102863.28;5053092;28;45192;-84
2022/03/17 13:30:16;;;;;;;;;9.50;9.00;;;;;13.32;47.03;102845.47;5046191;28;45624;-81
2022/03/17 13:32:43;;;;;;;;;17.00;12.25;;;;;13.40;46.63;102852.44;5052059;28;45405;-84
2022/03/17 13:35:13;;;;;;;;;15.25;10.25;;;;;13.16;46.48;102818.00;5053692;28;45435;-84
2022/03/17 13:37:41;;;;;;;;;13.00;11.75;;;;;13.21;46.49;102819.66;5035115;28;45328;-80
2022/03/17 13:40:10;;;;;;;;;16.00;13.25;;;;;13.23;46.54;102833.97;5053516;28;45296;-83
2022/03/17 13:42:36;;;;;;;;;17.75;14.00;;;;;13.13;47.20;102815.34;5052476;28;45772;-81
2022/03/17 13:45:03;;;;;;;;;13.25;11.00;;;;;13.40;47.14;102862.31;5053752;28;45453;-83
2022/03/17 13:47:31;;;;;;;;;15.00;10.00;;;;;13.33;47.66;102845.44;5055373;28;45495;-81
2022/03/17 13:50:11;;;;;;;;;14.50;11.75;;;;;13.43;46.98;102864.94;5058297;28;45231;-81
2022/03/17 13:52:38;;;;;;;;;13.00;11.00;;;;;13.02;46.96;102793.16;5036432;28;47070;-84
2022/03/17 13:55:11;;;;;;;;;14.00;12.00;;;;;13.37;47.13;102854.31;5058074;28;45507;-82
2022/03/17 13:57:37;;;;;;;;;12.25;12.25;;;;;13.33;46.35;102847.22;5053380;28;45428;-83
2022/03/17 14:00:20;;;;;;;;;11.00;9.25;;;;;13.27;46.37;102843.75;5056029;28;45643;-84
2022/03/17 14:03:06;;;;;;;;;12.00;10.00;;;;;13.40;46.77;102854.25;5053496;28;46574;-83
2022/03/17 14:05:31;;;;;;;;;16.50;13.75;;;;;12.88;46.54;102772.84;5053820;28;45429;-83
2022/03/17 14:07:57;;;;;;;;;11.25;11.00;;;;;13.03;47.20;102814.66;5030673;28;45452;-81
2022/03/17 14:10:22;;;;;;;;;17.50;13.00;;;;;13.02;47.02;102814.69;5040213;28;46476;-84
2022/03/17 14:12:48;;;;;;;;;17.25;14.50;;;;;13.01;46.99;102815.63;5052801;28;46085;-83
2022/03/17 14:15:13;;;;;;;;;12.50;12.50;;;;;13.12;47.20;102832.41;5055483;28;45475;-80
2022/03/17 14:17:38;;;;;;;;;16.00;12.00;;;;;12.98;46.98;102807.63;5056140;28;45438;-84
2022/03/17 14:20:04;;;;;;;;;15.00;13.50;;;;;13.02;47.42;102830.84;5056839;28;45275;-82
2022/03/17 14:25:14;;;;;;;;;13.50;13.50;;;;;13.29;46.97;102877.84;5056053;28;45484;-82
2022/03/17 14:27:39;;;;;;;;;11.25;10.75;;;;;12.98;47.27;102823.78;5057471;28;45255;-83
2022/03/17 14:30:05;;;;;;;;;9.00;8.00;;;;;12.82;47.73;102797.22;5042964;28;46398;-81
2022/03/17 14:32:32;;;;;;;;;14.50;11.75;;;;;13.17;47.58;102852.09;5056262;28;46191;-83
2022/03/17 14:34:58;;;;;;;;;13.00;10.75;;;;;13.25;47.66;102867.16;5057176;28;45259;-83
2022/03/17 14:37:24;;;;;;;;;10.25;10.00;;;;;13.24;47.93;102856.41;5058380;28;45498;-82
2022/03/17 14:39:49;;;;;;;;;12.50;11.25;;;;;13.07;47.03;102821.75;5058105;28;45322;-81
2022/03/17 14:42:15;;;;;;;;;13.25;9.50;;;;;13.25;47.24;102867.16;5058063;28;45442;-85
2022/03/17 14:44:40;;;;;;;;;5.75;5.00;;;;;13.21;47.23;102865.44;5046220;28;45432;-83
2022/03/17 14:47:06;;;;;;;;;15.25;11.00;;;;;12.93;46.79;102823.00;5055967;28;45424;-84
2022/03/17 14:49:31;;;;;;;;;12.00;11.25;;;;;13.12;47.00;102860.22;5058345;28;45398;-84
2022/03/17 14:51:57;;;;;;;;;11.50;9.75;;;;;12.82;47.40;102813.34;5038749;28;47669;-83
2022/03/17 14:54:22;;;;;;;;;11.25;10.75;;;;;12.82;47.50;102812.47;5055829;28;45520;-82
2022/03/17 14:56:49;;;;;;;;;12.00;11.50;;;;;13.22;47.00;102888.78;5056496;28;46147;-84
2022/03/17 14:59:15;;;;;;;;;13.50;11.25;;;;;12.99;47.30;102860.56;5037861;28;46047;-83
2022/03/17 15:01:40;;;;;;;;;10.00;8.00;;;;;13.01;47.79;102853.34;5054312;28;48259;-82
2022/03/17 15:04:05;;;;;;;;;11.25;11.00;;;;;12.96;47.62;102856.13;5056284;28;45466;-82
2022/03/17 15:06:31;;;;;;;;;12.75;10.00;;;;;13.10;48.28;102875.53;5058668;28;45465;-82
2022/03/17 15:08:56;;;;;;;;;13.50;13.50;;;;;13.22;47.96;102896.84;5037952;28;46423;-83
2022/03/17 15:11:22;;;;;;;;;14.00;12.00;;;;;13.13;48.31;102875.50;5060049;28;46624;-81
2022/03/17 15:13:50;;;;;;;;;15.25;14.25;;;;;13.24;47.56;102895.00;5059605;28;45291;-81
2022/03/17 15:16:15;;;;;;;;;9.25;9.25;;;;;13.23;47.27;102897.75;5043975;28;45516;-83
2022/03/17 15:18:41;;;;;;;;;8.75;8.75;;;;;12.89;47.33;102854.47;5068172;28;45388;-82
2022/03/17 15:21:06;;;;;;;;;17.25;14.75;;;;;12.93;48.01;102861.56;5064615;28;45369;-82
2022/03/17 15:23:32;;;;;;;;;13.75;11.25;;;;;12.85;48.22;102859.03;5063658;28;45352;-82
2022/03/17 15:25:58;;;;;;;;;10.75;8.75;;;;;12.98;47.94;102881.19;5059639;28;45452;-82
2022/03/17 15:31:08;;;;;;;;;12.00;12.00;;;;;12.80;48.03;102860.94;5044606;28;45668;-82
2022/03/17 15:33:34;;;;;;;;;11.50;8.75;;;;;12.95;48.44;102896.53;5058262;28;47113;-83
2022/03/17 15:36:00;;;;;;;;;13.25;10.00;;;;;12.96;48.20;102901.88;5037833;28;45455;-83
2022/03/17 15:38:26;;;;;;;;;13.50;9.25;;;;;13.01;48.41;102899.13;5055402;28;45255;-85
2022/03/17 15:40:52;;;;;;;;;10.75;9.50;;;;;12.90;48.75;102875.09;5036991;28;46089;-83
2022/03/17 15:43:18;;;;;;;;;12.50;12.50;;;;;13.09;48.90;102907.91;5055626;28;45367;-84
2022/03/17 15:45:44;;;;;;;;;10.50;8.50;;;;;13.10;48.74;102910.53;5057089;28;45502;-82
2022/03/17 15:48:11;;;;;;;;;12.25;11.00;;;;;13.10;48.30;102909.69;5037472;28;45461;-82
2022/03/17 15:50:47;;;;;;;;;15.00;11.50;;;;;13.02;48.52;102906.25;5039750;28;47117;-79
2022/03/17 15:53:14;;;;;;;;;13.25;11.25;;;;;13.11;48.52;102914.13;5036385;28;45862;-78
2022/03/17 15:55:39;;;;;;;;;19.25;12.00;;;;;13.07;48.24;102912.44;5055038;28;45372;-78
2022/03/17 15:58:05;;;;;;;;;10.50;10.25;;;;;13.04;48.74;102917.88;5055179;28;45327;-76
2022/03/17 16:00:30;;;;;;;;;12.50;10.50;;;;;12.94;49.29;102911.78;5055462;28;46245;-76
2022/03/17 16:02:59;;;;;;;;;10.50;10.50;;;;;12.95;48.79;102918.97;5058085;28;45542;-75
2022/03/17 16:05:26;;;;;;;;;10.50;8.25;;;;;12.93;48.95;102922.63;5057594;28;45338;-75
2022/03/17 16:07:51;;;;;;;;;13.75;13.00;;;;;12.87;49.04;102908.34;5054908;28;45374;-75
2022/03/17 16:15:44;;;;;;;;;12.75;11.25;;;;;12.68;49.53;102936.53;5046845;28;45517;-76
2022/03/17 16:18:16;;;;;;;;;13.50;12.75;;;;;12.60;49.46;102933.13;5053000;28;45548;-74
2022/03/17 16:20:45;;;;;;;;;14.25;10.75;;;;;12.65;49.63;102947.41;5056410;28;46105;-75
2022/03/17 16:23:11;;;;;;;;;13.50;11.50;;;;;12.65;49.62;102943.81;5051303;28;45440;-75
2022/03/17 16:25:37;;;;;;;;;20.25;12.75;;;;;12.60;49.45;102941.19;5051376;28;45410;-74
2022/03/17 16:28:03;;;;;;;;;14.00;11.00;;;;;12.51;49.94;102942.25;5052899;28;45516;-76
2022/03/17 16:30:28;;;;;;;;;16.25;12.25;;;;;12.48;49.79;102942.34;5052041;28;46452;-75
2022/03/17 16:32:54;;;;;;;;;13.00;12.50;;;;;12.45;50.40;102945.06;5051880;28;45790;-73
2022/03/17 16:35:19;;;;;;;;;16.25;13.25;;;;;12.52;49.45;102964.66;5052817;28;45551;-75
2022/03/17 16:37:46;;;;;;;;;15.75;12.50;;;;;12.50;49.59;102963.84;5052234;28;45780;-74
2022/03/17 16:40:16;;;;;;;;;15.50;11.00;;;;;12.45;50.14;102963.91;5052407;28;45604;-74
2022/03/17 16:42:42;;;;;;;;;14.25;12.00;;;;;12.40;50.58;102965.81;5032961;28;45903;-74
2022/03/17 16:45:10;;;;;;;;;14.50;14.50;;;;;12.35;49.94;102958.72;5032067;28;45460;-73
2022/03/17 16:47:35;;;;;;;;;18.00;13.50;;;;;12.40;50.76;102968.50;5033013;28;46333;-74
2022/03/17 16:50:02;;;;;;;;;14.75;12.50;;;;;12.36;50.19;102968.56;5048648;28;46064;-73
2022/03/17 16:52:27;;;;;;;;;19.75;16.00;;;;;12.29;50.70;102961.53;5032992;28;45406;-72
2022/03/17 16:54:53;;;;;;;;;17.75;14.00;;;;;12.43;51.18;102981.88;5048935;28;45879;-71
2022/03/17 16:57:18;;;;;;;;;14.25;11.00;;;;;12.46;50.99;102972.88;5033338;28;45326;-74
2022/03/17 16:59:46;;;;;;;;;13.75;13.25;;;;;12.42;50.20;102963.06;5049896;28;46346;-73
2022/03/17 17:02:11;;;;;;;;;13.25;12.00;;;;;12.44;50.22;102983.66;5054283;28;45389;-72
2022/03/17 17:04:38;;;;;;;;;11.50;7.75;;;;;12.44;50.25;102985.44;5053678;28;45333;-74
2022/03/17 17:07:06;;;;;;;;;13.50;12.75;;;;;12.45;50.08;102987.22;5053495;28;45528;-72
2022/03/17 17:09:33;;;;;;;;;11.00;11.00;;;;;12.39;50.50;102980.16;5054132;28;46525;-74
2022/03/17 17:11:58;;;;;;;;;11.75;11.75;;;;;12.42;50.11;102990.84;5054955;28;45342;-74
2022/03/17 17:14:24;;;;;;;;;17.75;12.75;;;;;12.39;50.50;102984.66;5035321;28;45566;-71